createdAt,value
2023-04-14T00:00:57.512Z,94082.00
2023-04-14T00:01:57.621Z,94082.00
2023-04-14T00:02:57.685Z,94082.00
2023-04-14T00:03:57.736Z,94080.00
2023-04-14T00:04:57.687Z,94080.00
2023-04-14T00:05:57.675Z,94080.00
2023-04-14T00:06:57.709Z,94080.00
2023-04-14T00:07:57.759Z,94080.00
2023-04-14T00:08:57.948Z,94082.00
2023-04-14T00:09:57.866Z,94084.00
2023-04-14T00:10:57.875Z,94084.00
2023-04-14T00:11:57.876Z,94082.00
2023-04-14T00:12:57.915Z,94084.00
2023-04-14T00:13:57.983Z,94084.00
2023-04-14T00:14:58.029Z,94086.00
2023-04-14T00:15:58.011Z,94082.00
2023-04-14T00:16:58.092Z,94082.00
2023-04-14T00:17:58.147Z,94082.00
2023-04-14T00:18:58.392Z,94084.00
2023-04-14T00:19:58.190Z,94086.00
2023-04-14T00:20:58.175Z,94084.00
2023-04-14T00:21:58.230Z,94084.00
2023-04-14T00:22:58.313Z,94084.00
2023-04-14T00:23:58.328Z,94082.00
2023-04-14T00:24:58.383Z,94080.00
2023-04-14T00:25:58.399Z,94080.00
2023-04-14T00:26:58.451Z,94080.00
2023-04-14T00:27:58.521Z,94078.00
2023-04-14T00:28:58.735Z,94078.00
2023-04-14T00:29:58.573Z,94078.00
2023-04-14T00:30:58.620Z,94078.00
2023-04-14T00:31:58.631Z,94078.00
2023-04-14T00:32:58.740Z,94080.00
2023-04-14T00:33:58.711Z,94078.00
2023-04-14T00:34:58.772Z,94078.00
2023-04-14T00:35:58.748Z,94076.00
2023-04-14T00:36:58.818Z,94074.00
2023-04-14T00:37:58.883Z,94070.00
2023-04-14T00:38:59.130Z,94070.00
2023-04-14T00:39:58.977Z,94070.00
2023-04-14T00:40:58.974Z,94068.00
2023-04-14T00:41:59.025Z,94070.00
2023-04-14T00:42:59.089Z,94070.00
2023-04-14T00:43:59.116Z,94070.00
2023-04-14T00:44:59.172Z,94070.00
2023-04-14T00:45:59.218Z,94070.00
2023-04-14T00:46:59.266Z,94072.00
2023-04-14T00:47:59.311Z,94072.00
2023-04-14T00:48:59.681Z,94072.00
2023-04-14T00:49:59.376Z,94072.00
2023-04-14T00:50:59.409Z,94070.00
2023-04-14T00:51:59.460Z,94072.00
2023-04-14T00:52:59.514Z,94072.00
2023-04-14T00:53:59.524Z,94072.00
2023-04-14T00:54:59.567Z,94072.00
2023-04-14T00:55:59.628Z,94070.00
2023-04-14T00:56:59.652Z,94072.00
2023-04-14T00:57:59.665Z,94072.00
2023-04-14T00:58:59.901Z,94074.00
2023-04-14T00:59:59.797Z,94072.00
2023-04-14T01:00:59.834Z,94074.00
2023-04-14T01:01:59.942Z,94076.00
2023-04-14T01:03:00.121Z,94074.00
2023-04-14T01:04:00.071Z,94074.00
2023-04-14T01:05:00.137Z,94072.00
2023-04-14T01:06:00.092Z,94072.00
2023-04-14T01:07:00.110Z,94074.00
2023-04-14T01:08:00.142Z,94074.00
2023-04-14T01:09:00.401Z,94074.00
2023-04-14T01:10:00.264Z,94074.00
2023-04-14T01:11:00.272Z,94072.00
2023-04-14T01:12:00.307Z,94072.00
2023-04-14T01:13:00.365Z,94074.00
2023-04-14T01:14:00.428Z,94074.00
2023-04-14T01:15:00.447Z,94072.00
2023-04-14T01:16:00.532Z,94074.00
2023-04-14T01:17:00.575Z,94074.00
2023-04-14T01:18:00.653Z,94074.00
2023-04-14T01:19:00.812Z,94074.00
2023-04-14T01:20:00.734Z,94078.00
2023-04-14T01:21:00.761Z,94076.00
2023-04-14T01:22:00.774Z,94080.00
2023-04-14T01:23:00.874Z,94080.00
2023-04-14T01:24:00.887Z,94078.00
2023-04-14T01:25:00.967Z,94076.00
2023-04-14T01:26:00.967Z,94072.00
2023-04-14T01:27:01.067Z,94070.00
2023-04-14T01:28:01.089Z,94068.00
2023-04-14T01:29:01.384Z,94064.00
2023-04-14T01:30:01.253Z,94064.00
2023-04-14T01:31:01.306Z,94060.00
2023-04-14T01:32:01.350Z,94060.00
2023-04-14T01:33:01.376Z,94058.00
2023-04-14T01:34:01.389Z,94056.00
2023-04-14T01:35:01.472Z,94056.00
2023-04-14T01:36:01.479Z,94054.00
2023-04-14T01:37:01.503Z,94052.00
2023-04-14T01:38:01.588Z,94050.00
2023-04-14T01:39:01.757Z,94048.00
2023-04-14T01:40:01.673Z,94043.00
2023-04-14T01:41:01.721Z,94043.00
2023-04-14T01:42:01.779Z,94039.00
2023-04-14T01:43:01.850Z,94039.00
2023-04-14T01:44:01.871Z,94039.00
2023-04-14T01:45:01.987Z,94037.00
2023-04-14T01:46:02.021Z,94037.00
2023-04-14T01:47:02.032Z,94035.00
2023-04-14T01:48:02.120Z,94035.00
2023-04-14T01:49:02.413Z,94035.00
2023-04-14T01:50:02.207Z,94031.00
2023-04-14T01:51:02.241Z,94031.00
2023-04-14T01:52:02.297Z,94029.00
2023-04-14T01:53:02.324Z,94027.00
2023-04-14T01:54:02.428Z,94021.00
2023-04-14T01:55:02.490Z,94023.00
2023-04-14T01:56:02.516Z,94023.00
2023-04-14T01:57:02.571Z,94017.00
2023-04-14T01:58:02.640Z,94019.00
2023-04-14T01:59:02.773Z,94019.00
2023-04-14T02:00:02.745Z,94019.00
2023-04-14T02:01:02.802Z,94015.00
2023-04-14T02:02:02.925Z,94017.00
2023-04-14T02:03:03.052Z,94013.00
2023-04-14T02:04:03.094Z,94015.00
2023-04-14T02:05:03.048Z,94017.00
2023-04-14T02:06:03.053Z,94011.00
2023-04-14T02:07:03.133Z,94013.00
2023-04-14T02:08:03.175Z,94015.00
2023-04-14T02:09:03.226Z,94019.00
2023-04-14T02:10:03.311Z,94023.00
2023-04-14T02:11:03.342Z,94027.00
2023-04-14T02:12:03.434Z,94029.00
2023-04-14T02:13:03.420Z,94031.00
2023-04-14T02:14:03.495Z,94029.00
2023-04-14T02:15:03.584Z,94027.00
2023-04-14T02:16:03.622Z,94027.00
2023-04-14T02:17:03.774Z,94021.00
2023-04-14T02:18:03.829Z,94021.00
2023-04-14T02:19:03.810Z,94019.00
2023-04-14T02:20:03.850Z,94021.00
2023-04-14T02:21:03.923Z,94025.00
2023-04-14T02:22:03.954Z,94025.00
2023-04-14T02:23:04.050Z,94027.00
2023-04-14T02:24:04.089Z,94025.00
2023-04-14T02:25:04.169Z,94023.00
2023-04-14T02:26:04.207Z,94021.00
2023-04-14T02:27:04.269Z,94015.00
2023-04-14T02:28:04.287Z,94013.00
2023-04-14T02:29:04.321Z,94009.00
2023-04-14T02:30:04.427Z,94007.00
2023-04-14T02:31:04.506Z,94003.00
2023-04-14T02:32:04.518Z,94005.00
2023-04-14T02:33:04.622Z,94005.00
2023-04-14T02:34:04.616Z,94001.00
2023-04-14T02:35:04.851Z,94005.00
2023-04-14T02:36:04.752Z,94005.00
2023-04-14T02:37:04.821Z,94005.00
2023-04-14T02:38:04.877Z,94007.00
2023-04-14T02:39:04.917Z,94013.00
2023-04-14T02:40:05.002Z,94017.00
2023-04-14T02:41:05.107Z,94021.00
2023-04-14T02:42:05.099Z,94025.00
2023-04-14T02:43:05.182Z,94031.00
2023-04-14T02:44:05.233Z,94031.00
2023-04-14T02:45:05.304Z,94035.00
2023-04-14T02:46:05.375Z,94035.00
2023-04-14T02:47:05.378Z,94035.00
2023-04-14T02:48:05.454Z,94033.00
2023-04-14T02:49:05.506Z,94033.00
2023-04-14T02:50:05.552Z,94029.00
2023-04-14T02:51:05.602Z,94031.00
2023-04-14T02:52:05.699Z,94027.00
2023-04-14T02:53:05.738Z,94031.00
2023-04-14T02:54:05.772Z,94027.00
2023-04-14T02:55:05.855Z,94029.00
2023-04-14T02:56:05.927Z,94025.00
2023-04-14T02:57:05.963Z,94025.00
2023-04-14T02:58:06.023Z,94021.00
2023-04-14T02:59:06.078Z,94021.00
2023-04-14T03:00:06.196Z,94017.00
2023-04-14T03:01:06.208Z,94017.00
2023-04-14T03:02:06.415Z,94017.00
2023-04-14T03:03:06.415Z,94019.00
2023-04-14T03:04:06.414Z,94021.00
2023-04-14T03:05:06.447Z,94021.00
2023-04-14T03:06:06.502Z,94023.00
2023-04-14T03:07:06.591Z,94025.00
2023-04-14T03:08:06.628Z,94021.00
2023-04-14T03:09:06.690Z,94023.00
2023-04-14T03:10:06.778Z,94023.00
2023-04-14T03:11:06.798Z,94021.00
2023-04-14T03:12:06.852Z,94023.00
2023-04-14T03:13:06.899Z,94021.00
2023-04-14T03:14:06.969Z,94023.00
2023-04-14T03:15:07.052Z,94021.00
2023-04-14T03:16:07.081Z,94019.00
2023-04-14T03:17:07.112Z,94021.00
2023-04-14T03:18:07.253Z,94017.00
2023-04-14T03:19:07.220Z,94017.00
2023-04-14T03:20:07.325Z,94013.00
2023-04-14T03:21:07.349Z,94015.00
2023-04-14T03:22:07.359Z,94011.00
2023-04-14T03:23:07.433Z,94009.00
2023-04-14T03:24:07.485Z,94005.00
2023-04-14T03:25:07.562Z,94005.00
2023-04-14T03:26:07.656Z,94003.00
2023-04-14T03:27:07.681Z,94005.00
2023-04-14T03:28:07.749Z,94005.00
2023-04-14T03:29:07.788Z,94005.00
2023-04-14T03:30:07.915Z,94007.00
2023-04-14T03:31:08.020Z,94009.00
2023-04-14T03:32:07.936Z,94009.00
2023-04-14T03:33:08.036Z,94007.00
2023-04-14T03:34:08.086Z,94007.00
2023-04-14T03:35:08.254Z,94009.00
2023-04-14T03:36:08.208Z,94015.00
2023-04-14T03:37:08.283Z,94009.00
2023-04-14T03:38:08.336Z,94009.00
2023-04-14T03:39:08.409Z,94007.00
2023-04-14T03:40:08.505Z,94007.00
2023-04-14T03:41:08.542Z,94013.00
2023-04-14T03:42:08.564Z,94015.00
2023-04-14T03:43:08.641Z,94017.00
2023-04-14T03:44:08.713Z,94019.00
2023-04-14T03:45:08.785Z,94017.00
2023-04-14T03:46:08.874Z,94017.00
2023-04-14T03:47:08.906Z,94017.00
2023-04-14T03:48:08.938Z,94019.00
2023-04-14T03:49:09.011Z,94017.00
2023-04-14T03:50:09.090Z,94017.00
2023-04-14T03:51:09.177Z,94015.00
2023-04-14T03:52:09.190Z,94015.00
2023-04-14T03:53:09.244Z,94017.00
2023-04-14T03:54:09.295Z,94019.00
2023-04-14T03:55:09.382Z,94015.00
2023-04-14T03:56:09.424Z,94013.00
2023-04-14T03:57:09.487Z,94013.00
2023-04-14T03:58:09.529Z,94011.00
2023-04-14T03:59:10.124Z,94009.00
2023-04-14T04:00:09.678Z,94009.00
2023-04-14T04:01:09.744Z,94009.00
2023-04-14T04:02:09.837Z,94009.00
2023-04-14T04:03:10.021Z,94007.00
2023-04-14T04:04:09.966Z,94009.00
2023-04-14T04:05:10.001Z,94009.00
2023-04-14T04:06:10.010Z,94009.00
2023-04-14T04:07:10.093Z,94011.00
2023-04-14T04:08:10.151Z,94011.00
2023-04-14T04:09:10.226Z,94013.00
2023-04-14T04:10:10.277Z,94015.00
2023-04-14T04:11:10.333Z,94015.00
2023-04-14T04:12:10.391Z,94015.00
2023-04-14T04:13:10.463Z,94015.00
2023-04-14T04:14:10.499Z,94017.00
2023-04-14T04:15:10.580Z,94019.00
2023-04-14T04:16:10.671Z,94019.00
2023-04-14T04:17:10.712Z,94019.00
2023-04-14T04:18:10.734Z,94019.00
2023-04-14T04:19:10.834Z,94023.00
2023-04-14T04:20:10.877Z,94023.00
2023-04-14T04:21:10.935Z,94025.00
2023-04-14T04:22:10.998Z,94027.00
2023-04-14T04:23:11.029Z,94031.00
2023-04-14T04:24:11.097Z,94031.00
2023-04-14T04:25:11.158Z,94033.00
2023-04-14T04:26:11.243Z,94035.00
2023-04-14T04:27:24.270Z,94033.00
2023-04-14T04:28:12.265Z,94031.00
2023-04-14T04:29:11.328Z,94033.00
2023-04-14T04:30:11.283Z,94033.00
2023-04-14T04:31:11.252Z,94035.00
2023-04-14T04:32:11.277Z,94035.00
2023-04-14T04:33:11.253Z,94037.00
2023-04-14T04:34:11.225Z,94037.00
2023-04-14T04:35:11.196Z,94041.00
2023-04-14T04:36:11.219Z,94041.00
2023-04-14T04:37:11.263Z,94039.00
2023-04-14T04:38:11.433Z,94039.00
2023-04-14T04:39:11.427Z,94039.00
2023-04-14T04:40:11.474Z,94037.00
2023-04-14T04:41:11.515Z,94043.00
2023-04-14T04:42:11.602Z,94037.00
2023-04-14T04:43:11.636Z,94039.00
2023-04-14T04:44:11.723Z,94041.00
2023-04-14T04:45:11.747Z,94041.00
2023-04-14T04:46:11.835Z,94041.00
2023-04-14T04:47:11.863Z,94041.00
2023-04-14T04:48:11.951Z,94043.00
2023-04-14T04:49:11.998Z,94046.00
2023-04-14T04:50:12.026Z,94045.00
2023-04-14T04:51:12.113Z,94046.00
2023-04-14T04:52:12.139Z,94045.00
2023-04-14T04:53:12.304Z,94048.00
2023-04-14T04:54:12.305Z,94045.00
2023-04-14T04:55:12.344Z,94045.00
2023-04-14T04:56:12.425Z,94046.00
2023-04-14T04:57:12.478Z,94046.00
2023-04-14T04:58:12.486Z,94045.00
2023-04-14T04:59:12.597Z,94046.00
2023-04-14T05:00:12.619Z,94046.00
2023-04-14T05:01:12.750Z,94046.00
2023-04-14T05:02:12.803Z,94045.00
2023-04-14T05:03:12.863Z,94048.00
2023-04-14T05:04:12.892Z,94046.00
2023-04-14T05:05:12.870Z,94046.00
2023-04-14T05:06:12.984Z,94046.00
2023-04-14T05:07:13.019Z,94046.00
2023-04-14T05:08:15.071Z,94045.00
2023-04-14T05:09:13.130Z,94045.00
2023-04-14T05:10:13.163Z,94046.00
2023-04-14T05:11:13.239Z,94046.00
2023-04-14T05:12:13.304Z,94046.00
2023-04-14T05:13:13.359Z,94045.00
2023-04-14T05:14:13.375Z,94043.00
2023-04-14T05:15:13.476Z,94041.00
2023-04-14T05:16:13.776Z,94037.00
2023-04-14T05:17:13.535Z,94039.00
2023-04-14T05:18:13.573Z,94037.00
2023-04-14T05:19:13.650Z,94035.00
2023-04-14T05:20:13.715Z,94035.00
2023-04-14T05:21:13.729Z,94035.00
2023-04-14T05:22:13.788Z,94035.00
2023-04-14T05:23:13.842Z,94037.00
2023-04-14T05:24:13.892Z,94039.00
2023-04-14T05:25:13.915Z,94043.00
2023-04-14T05:26:40.257Z,94043.00
2023-04-14T05:27:15.043Z,94045.00
2023-04-14T05:28:13.976Z,94046.00
2023-04-14T05:29:13.947Z,94045.00
2023-04-14T05:30:13.972Z,94046.00
2023-04-14T05:31:14.010Z,94048.00
2023-04-14T05:32:13.930Z,94052.00
2023-04-14T05:33:13.941Z,94052.00
2023-04-14T05:34:13.904Z,94054.00
2023-04-14T05:35:13.920Z,94054.00
2023-04-14T05:36:13.928Z,94060.00
2023-04-14T05:37:13.880Z,94062.00
2023-04-14T05:38:13.871Z,94066.00
2023-04-14T05:39:13.934Z,94066.00
2023-04-14T05:40:13.979Z,94064.00
2023-04-14T05:41:14.054Z,94066.00
2023-04-14T05:42:14.192Z,94064.00
2023-04-14T05:43:14.117Z,94062.00
2023-04-14T05:44:14.138Z,94066.00
2023-04-14T05:45:14.231Z,94064.00
2023-04-14T05:46:14.268Z,94064.00
2023-04-14T05:47:14.285Z,94066.00
2023-04-14T05:48:14.340Z,94068.00
2023-04-14T05:49:14.348Z,94070.00
2023-04-14T05:50:14.352Z,94070.00
2023-04-14T05:51:14.725Z,94070.00
2023-04-14T05:52:14.425Z,94074.00
2023-04-14T05:53:14.443Z,94072.00
2023-04-14T05:54:14.474Z,94080.00
2023-04-14T05:55:14.511Z,94076.00
2023-04-14T05:56:14.749Z,94082.00
2023-04-14T05:57:14.514Z,94084.00
2023-04-14T05:58:14.530Z,94088.00
2023-04-14T05:59:14.559Z,94090.00
2023-04-14T06:00:14.582Z,94086.00
2023-04-14T06:01:14.599Z,94086.00
2023-04-14T06:02:14.622Z,94092.00
2023-04-14T06:03:14.675Z,94084.00
2023-04-14T06:04:14.828Z,94082.00
2023-04-14T06:05:14.807Z,94084.00
2023-04-14T06:06:14.672Z,94084.00
2023-04-14T06:07:14.636Z,94090.00
2023-04-14T06:08:14.660Z,94090.00
2023-04-14T06:09:14.695Z,94090.00
2023-04-14T06:10:14.656Z,94088.00
2023-04-14T06:11:14.669Z,94088.00
2023-04-14T06:12:14.683Z,94088.00
2023-04-14T06:13:14.673Z,94088.00
2023-04-14T06:14:14.658Z,94088.00
2023-04-14T06:15:14.651Z,94086.00
2023-04-14T06:16:14.729Z,94086.00
2023-04-14T06:17:14.658Z,94084.00
2023-04-14T06:18:14.669Z,94086.00
2023-04-14T06:19:14.676Z,94086.00
2023-04-14T06:20:14.627Z,94086.00
2023-04-14T06:21:14.654Z,94088.00
2023-04-14T06:22:14.660Z,94088.00
2023-04-14T06:23:14.637Z,94092.00
2023-04-14T06:24:14.653Z,94095.00
2023-04-14T06:25:14.664Z,94095.00
2023-04-14T06:26:14.676Z,94092.00
2023-04-14T06:27:14.635Z,94097.00
2023-04-14T06:28:14.675Z,94092.00
2023-04-14T06:29:14.701Z,94090.00
2023-04-14T06:30:14.723Z,94093.00
2023-04-14T06:31:15.804Z,94088.00
2023-04-14T06:32:14.841Z,94086.00
2023-04-14T06:33:14.749Z,94088.00
2023-04-14T06:34:14.824Z,94086.00
2023-04-14T06:35:29.663Z,94086.00
2023-04-14T06:36:15.809Z,94082.00
2023-04-14T06:37:14.800Z,94086.00
2023-04-14T06:38:14.778Z,94084.00
2023-04-14T06:39:14.806Z,94088.00
2023-04-14T06:40:14.780Z,94086.00
2023-04-14T06:41:14.765Z,94084.00
2023-04-14T06:42:14.762Z,94084.00
2023-04-14T06:43:14.787Z,94084.00
2023-04-14T06:44:14.755Z,94080.00
2023-04-14T06:45:14.755Z,94080.00
2023-04-14T06:46:15.075Z,94084.00
2023-04-14T06:47:14.793Z,94080.00
2023-04-14T06:48:14.781Z,94080.00
2023-04-14T06:49:14.824Z,94078.00
2023-04-14T06:50:14.840Z,94084.00
2023-04-14T06:51:15.253Z,94084.00
2023-04-14T06:52:14.914Z,94090.00
2023-04-14T06:53:14.906Z,94088.00
2023-04-14T06:54:14.955Z,94082.00
2023-04-14T06:55:14.947Z,94078.00
2023-04-14T06:56:15.012Z,94078.00
2023-04-14T06:57:15.009Z,94076.00
2023-04-14T06:58:15.085Z,94080.00
2023-04-14T06:59:15.090Z,94078.00
2023-04-14T07:00:15.107Z,94078.00
2023-04-14T07:01:15.328Z,94082.00
2023-04-14T07:02:15.245Z,94082.00
2023-04-14T07:03:15.208Z,94078.00
2023-04-14T07:04:15.167Z,94078.00
2023-04-14T07:05:15.156Z,94078.00
2023-04-14T07:06:15.149Z,94074.00
2023-04-14T07:07:15.101Z,94076.00
2023-04-14T07:08:15.164Z,94076.00
2023-04-14T07:09:15.157Z,94074.00
2023-04-14T07:10:15.188Z,94080.00
2023-04-14T07:11:15.222Z,94078.00
2023-04-14T07:12:15.265Z,94076.00
2023-04-14T07:13:15.308Z,94076.00
2023-04-14T07:14:15.386Z,94076.00
2023-04-14T07:15:15.432Z,94078.00
2023-04-14T07:16:15.765Z,94078.00
2023-04-14T07:17:15.554Z,94078.00
2023-04-14T07:18:15.625Z,94080.00
2023-04-14T07:19:15.677Z,94080.00
2023-04-14T07:20:15.733Z,94080.00
2023-04-14T07:21:15.784Z,94080.00
2023-04-14T07:22:15.817Z,94080.00
2023-04-14T07:23:15.872Z,94080.00
2023-04-14T07:24:15.919Z,94080.00
2023-04-14T07:25:15.982Z,94084.00
2023-04-14T07:26:16.257Z,94082.00
2023-04-14T07:27:16.084Z,94084.00
2023-04-14T07:28:16.162Z,94084.00
2023-04-14T07:29:16.208Z,94088.00
2023-04-14T07:30:16.257Z,94090.00
2023-04-14T07:31:16.343Z,94092.00
2023-04-14T07:32:16.356Z,94093.00
2023-04-14T07:33:16.397Z,94093.00
2023-04-14T07:34:16.450Z,94092.00
2023-04-14T07:35:16.469Z,94088.00
2023-04-14T07:36:16.542Z,94092.00
2023-04-14T07:37:16.574Z,94095.00
2023-04-14T07:38:16.602Z,94095.00
2023-04-14T07:39:16.620Z,94099.00
2023-04-14T07:40:16.682Z,94097.00
2023-04-14T07:41:16.829Z,94099.00
2023-04-14T07:42:16.759Z,94099.00
2023-04-14T07:43:16.828Z,94105.00
2023-04-14T07:44:16.841Z,94103.00
2023-04-14T07:45:16.844Z,94105.00
2023-04-14T07:46:16.972Z,94103.00
2023-04-14T07:47:16.962Z,94103.00
2023-04-14T07:48:16.966Z,94105.00
2023-04-14T07:49:16.993Z,94107.00
2023-04-14T07:50:19.631Z,94107.00
2023-04-14T07:51:17.279Z,94113.00
2023-04-14T07:52:17.034Z,94119.00
2023-04-14T07:53:16.989Z,94121.00
2023-04-14T07:54:17.035Z,94121.00
2023-04-14T07:55:16.987Z,94117.00
2023-04-14T07:56:16.991Z,94113.00
2023-04-14T07:57:16.977Z,94111.00
2023-04-14T07:58:16.962Z,94111.00
2023-04-14T07:59:16.996Z,94107.00
2023-04-14T08:00:16.957Z,94111.00
2023-04-14T08:01:16.978Z,94109.00
2023-04-14T08:02:17.066Z,94115.00
2023-04-14T08:03:17.156Z,94117.00
2023-04-14T08:04:17.071Z,94119.00
2023-04-14T08:05:16.942Z,94121.00
2023-04-14T08:06:17.290Z,94125.00
2023-04-14T08:07:16.914Z,94123.00
2023-04-14T08:08:16.932Z,94127.00
2023-04-14T08:09:16.906Z,94129.00
2023-04-14T08:10:16.897Z,94129.00
2023-04-14T08:11:16.940Z,94129.00
2023-04-14T08:12:16.910Z,94127.00
2023-04-14T08:13:16.880Z,94131.00
2023-04-14T08:14:16.859Z,94125.00
2023-04-14T08:15:16.856Z,94138.00
2023-04-14T08:16:16.978Z,94129.00
2023-04-14T08:17:16.847Z,94129.00
2023-04-14T08:18:16.846Z,94138.00
2023-04-14T08:19:16.848Z,94138.00
2023-04-14T08:20:16.829Z,94138.00
2023-04-14T08:21:17.261Z,94138.00
2023-04-14T08:22:16.846Z,94138.00
2023-04-14T08:23:16.783Z,94142.00
2023-04-14T08:24:16.800Z,94142.00
2023-04-14T08:25:16.809Z,94144.00
2023-04-14T08:26:16.802Z,94146.00
2023-04-14T08:27:16.785Z,94144.00
2023-04-14T08:28:16.772Z,94140.00
2023-04-14T08:29:16.781Z,94148.00
2023-04-14T08:30:16.776Z,94148.00
2023-04-14T08:31:16.822Z,94148.00
2023-04-14T08:32:16.835Z,94148.00
2023-04-14T08:33:16.859Z,94150.00
2023-04-14T08:34:19.353Z,94150.00
2023-04-14T08:35:37.096Z,94148.00
2023-04-14T08:36:17.737Z,94146.00
2023-04-14T08:37:16.722Z,94150.00
2023-04-14T08:38:16.729Z,94152.00
2023-04-14T08:39:16.718Z,94148.00
2023-04-14T08:40:16.713Z,94152.00
2023-04-14T08:41:16.783Z,94152.00
2023-04-14T08:42:16.693Z,94148.00
2023-04-14T08:43:16.707Z,94146.00
2023-04-14T08:44:16.673Z,94148.00
2023-04-14T08:45:16.690Z,94148.00
2023-04-14T08:46:16.850Z,94144.00
2023-04-14T08:47:16.777Z,94142.00
2023-04-14T08:48:16.609Z,94142.00
2023-04-14T08:49:16.618Z,94146.00
2023-04-14T08:50:16.636Z,94146.00
2023-04-14T08:51:16.795Z,94146.00
2023-04-14T08:52:16.610Z,94146.00
2023-04-14T08:53:16.607Z,94144.00
2023-04-14T08:54:16.618Z,94140.00
2023-04-14T08:55:16.559Z,94129.00
2023-04-14T08:56:16.573Z,94131.00
2023-04-14T08:57:16.592Z,94131.00
2023-04-14T08:58:16.570Z,94131.00
2023-04-14T08:59:16.579Z,94140.00
2023-04-14T09:00:16.542Z,94129.00
2023-04-14T09:01:16.683Z,94138.00
2023-04-14T09:02:16.603Z,94129.00
2023-04-14T09:03:16.773Z,94129.00
2023-04-14T09:04:16.793Z,94131.00
2023-04-14T09:05:16.547Z,94129.00
2023-04-14T09:06:16.510Z,94127.00
2023-04-14T09:07:16.565Z,94129.00
2023-04-14T09:08:16.566Z,94129.00
2023-04-14T09:09:16.629Z,94127.00
2023-04-14T09:10:16.676Z,94131.00
2023-04-14T09:11:16.746Z,94140.00
2023-04-14T09:12:17.299Z,94138.00
2023-04-14T09:13:16.855Z,94131.00
2023-04-14T09:14:16.852Z,94129.00
2023-04-14T09:15:16.915Z,94129.00
2023-04-14T09:16:16.972Z,94138.00
2023-04-14T09:17:17.418Z,94140.00
2023-04-14T09:18:17.065Z,94144.00
2023-04-14T09:19:17.107Z,94144.00
2023-04-14T09:20:35.395Z,94140.00
2023-04-14T09:21:49.666Z,94144.00
2023-04-14T09:22:18.140Z,94142.00
2023-04-14T09:23:17.134Z,94146.00
2023-04-14T09:24:17.128Z,94148.00
2023-04-14T09:25:17.135Z,94150.00
2023-04-14T09:26:17.116Z,94156.00
2023-04-14T09:27:17.084Z,94162.00
2023-04-14T09:28:17.105Z,94160.00
2023-04-14T09:29:17.125Z,94164.00
2023-04-14T09:30:17.085Z,94162.00
2023-04-14T09:31:17.233Z,94158.00
2023-04-14T09:32:17.064Z,94158.00
2023-04-14T09:33:17.080Z,94158.00
2023-04-14T09:34:17.077Z,94160.00
2023-04-14T09:35:17.040Z,94164.00
2023-04-14T09:36:17.038Z,94164.00
2023-04-14T09:37:17.013Z,94168.00
2023-04-14T09:38:17.031Z,94168.00
2023-04-14T09:39:17.082Z,94170.00
2023-04-14T09:40:17.046Z,94172.00
2023-04-14T09:41:17.016Z,94172.00
2023-04-14T09:42:17.042Z,94174.00
2023-04-14T09:43:16.983Z,94176.00
2023-04-14T09:44:17.002Z,94176.00
2023-04-14T09:45:17.005Z,94172.00
2023-04-14T09:46:17.055Z,94176.00
2023-04-14T09:47:17.302Z,94176.00
2023-04-14T09:48:16.957Z,94176.00
2023-04-14T09:49:16.948Z,94180.00
2023-04-14T09:50:16.929Z,94180.00
2023-04-14T09:51:16.947Z,94182.00
2023-04-14T09:52:16.947Z,94180.00
2023-04-14T09:53:16.903Z,94180.00
2023-04-14T09:54:16.921Z,94172.00
2023-04-14T09:55:16.938Z,94170.00
2023-04-14T09:56:16.878Z,94170.00
2023-04-14T09:57:16.897Z,94170.00
2023-04-14T09:58:16.919Z,94170.00
2023-04-14T09:59:16.876Z,94174.00
2023-04-14T10:00:16.888Z,94170.00
2023-04-14T10:01:16.918Z,94166.00
2023-04-14T10:02:16.967Z,94162.00
2023-04-14T10:03:17.024Z,94162.00
2023-04-14T10:04:16.905Z,94162.00
2023-04-14T10:05:16.837Z,94164.00
2023-04-14T10:06:16.827Z,94164.00
2023-04-14T10:07:16.854Z,94164.00
2023-04-14T10:08:16.789Z,94164.00
2023-04-14T10:09:16.855Z,94162.00
2023-04-14T10:10:16.891Z,94160.00
2023-04-14T10:11:16.955Z,94162.00
2023-04-14T10:12:17.287Z,94160.00
2023-04-14T10:13:17.013Z,94160.00
2023-04-14T10:14:17.102Z,94162.00
2023-04-14T10:15:17.108Z,94158.00
2023-04-14T10:16:17.214Z,94152.00
2023-04-14T10:17:17.218Z,94154.00
2023-04-14T10:18:17.310Z,94146.00
2023-04-14T10:19:17.308Z,94146.00
2023-04-14T10:20:17.466Z,94146.00
2023-04-14T10:21:17.431Z,94146.00
2023-04-14T10:22:17.473Z,94144.00
2023-04-14T10:23:17.450Z,94146.00
2023-04-14T10:24:17.548Z,94148.00
2023-04-14T10:25:17.582Z,94150.00
2023-04-14T10:26:17.597Z,94150.00
2023-04-14T10:27:17.654Z,94154.00
2023-04-14T10:28:17.706Z,94150.00
2023-04-14T10:29:17.744Z,94148.00
2023-04-14T10:30:17.833Z,94146.00
2023-04-14T10:31:17.816Z,94148.00
2023-04-14T10:32:17.905Z,94150.00
2023-04-14T10:33:17.922Z,94152.00
2023-04-14T10:34:17.991Z,94154.00
2023-04-14T10:35:18.018Z,94152.00
2023-04-14T10:36:18.067Z,94148.00
2023-04-14T10:37:18.335Z,94138.00
2023-04-14T10:38:18.212Z,94129.00
2023-04-14T10:39:18.205Z,94127.00
2023-04-14T10:40:18.835Z,94140.00
2023-04-14T10:41:18.240Z,94131.00
2023-04-14T10:42:18.292Z,94138.00
2023-04-14T10:43:18.353Z,94127.00
2023-04-14T10:44:18.390Z,94123.00
2023-04-14T10:45:18.425Z,94125.00
2023-04-14T10:46:18.771Z,94123.00
2023-04-14T10:47:18.410Z,94121.00
2023-04-14T10:48:18.451Z,94123.00
2023-04-14T10:49:18.496Z,94115.00
2023-04-14T10:50:18.625Z,94113.00
2023-04-14T10:51:18.604Z,94109.00
2023-04-14T10:52:18.659Z,94111.00
2023-04-14T10:53:18.699Z,94119.00
2023-04-14T10:54:18.780Z,94117.00
2023-04-14T10:55:18.796Z,94115.00
2023-04-14T10:56:18.873Z,94113.00
2023-04-14T10:57:18.938Z,94105.00
2023-04-14T10:58:18.990Z,94101.00
2023-04-14T10:59:19.034Z,94105.00
2023-04-14T11:00:19.063Z,94103.00
2023-04-14T11:01:19.151Z,94105.00
2023-04-14T11:02:19.263Z,94103.00
2023-04-14T11:03:19.276Z,94105.00
2023-04-14T11:04:19.366Z,94103.00
2023-04-14T11:05:19.199Z,94101.00
2023-04-14T11:06:19.232Z,94099.00
2023-04-14T11:07:19.272Z,94095.00
2023-04-14T11:08:19.259Z,94097.00
2023-04-14T11:09:19.312Z,94095.00
2023-04-14T11:10:19.330Z,94095.00
2023-04-14T11:11:19.268Z,94099.00
2023-04-14T11:12:19.863Z,94097.00
2023-04-14T11:13:19.353Z,94099.00
2023-04-14T11:14:19.408Z,94101.00
2023-04-14T11:15:19.448Z,94099.00
2023-04-14T11:16:19.524Z,94093.00
2023-04-14T11:17:19.572Z,94095.00
2023-04-14T11:18:19.590Z,94092.00
2023-04-14T11:19:19.602Z,94095.00
2023-04-14T11:20:19.614Z,94095.00
2023-04-14T11:21:19.615Z,94097.00
2023-04-14T11:22:19.589Z,94097.00
2023-04-14T11:23:19.575Z,94095.00
2023-04-14T11:24:19.619Z,94095.00
2023-04-14T11:26:19.566Z,94099.00
2023-04-14T11:27:19.629Z,94095.00
2023-04-14T11:28:19.600Z,94099.00
2023-04-14T11:29:19.698Z,94101.00
2023-04-14T11:30:19.776Z,94101.00
2023-04-14T11:31:22.447Z,94101.00
2023-04-14T11:32:19.966Z,94103.00
2023-04-14T11:33:19.775Z,94101.00
2023-04-14T11:34:19.783Z,94103.00
2023-04-14T11:35:19.745Z,94099.00
2023-04-14T11:36:19.769Z,94097.00
2023-04-14T11:37:22.022Z,94095.00
2023-04-14T11:38:19.739Z,94090.00
2023-04-14T11:39:19.744Z,94088.00
2023-04-14T11:40:19.720Z,94088.00
2023-04-14T11:41:19.742Z,94092.00
2023-04-14T11:42:19.745Z,94095.00
2023-04-14T11:43:21.530Z,94097.00
2023-04-14T11:44:19.714Z,94093.00
2023-04-14T11:45:19.721Z,94090.00
2023-04-14T11:46:19.724Z,94088.00